sensor_id;sensor_type;location;lat;lon;timestamp;P1;durP1;ratioP1;P2;durP2;ratioP2
3589;SDS011;1809;48.470;9.226;2024-02-15T00:02:19;3.33;;;2.77;;
3589;SDS011;1809;48.470;9.226;2024-02-15T00:04:44;2.60;;;2.37;;
3589;SDS011;1809;48.470;9.226;2024-02-15T00:07:10;4.00;;;2.80;;
3589;SDS011;1809;48.470;9.226;2024-02-15T00:09:35;3.73;;;1.90;;
3589;SDS011;1809;48.470;9.226;2024-02-15T00:12:01;4.20;;;2.30;;
3589;SDS011;1809;48.470;9.226;2024-02-15T00:14:27;2.80;;;2.40;;
3589;SDS011;1809;48.470;9.226;2024-02-15T00:16:56;3.70;;;2.27;;
3589;SDS011;1809;48.470;9.226;2024-02-15T00:19:21;5.53;;;2.90;;
3589;SDS011;1809;48.470;9.226;2024-02-15T00:21:47;3.13;;;2.60;;
3589;SDS011;1809;48.470;9.226;2024-02-15T00:24:13;4.70;;;2.63;;
3589;SDS011;1809;48.470;9.226;2024-02-15T00:26:39;3.03;;;2.77;;
3589;SDS011;1809;48.470;9.226;2024-02-15T00:29:05;4.43;;;2.10;;
3589;SDS011;1809;48.470;9.226;2024-02-15T00:31:31;3.07;;;2.20;;
3589;SDS011;1809;48.470;9.226;2024-02-15T00:33:56;2.40;;;2.30;;
3589;SDS011;1809;48.470;9.226;2024-02-15T00:36:21;3.07;;;2.20;;
3589;SDS011;1809;48.470;9.226;2024-02-15T00:38:48;2.67;;;2.47;;
3589;SDS011;1809;48.470;9.226;2024-02-15T00:41:13;2.47;;;2.27;;
3589;SDS011;1809;48.470;9.226;2024-02-15T00:43:38;2.83;;;2.43;;
3589;SDS011;1809;48.470;9.226;2024-02-15T00:46:04;3.40;;;2.10;;
3589;SDS011;1809;48.470;9.226;2024-02-15T00:48:29;2.70;;;2.33;;
3589;SDS011;1809;48.470;9.226;2024-02-15T00:50:58;2.90;;;1.77;;
3589;SDS011;1809;48.470;9.226;2024-02-15T00:53:24;2.50;;;2.40;;
3589;SDS011;1809;48.470;9.226;2024-02-15T00:55:49;2.50;;;2.30;;
3589;SDS011;1809;48.470;9.226;2024-02-15T00:58:14;2.27;;;2.17;;
3589;SDS011;1809;48.470;9.226;2024-02-15T01:00:40;2.73;;;2.10;;
3589;SDS011;1809;48.470;9.226;2024-02-15T01:03:05;1.83;;;1.73;;
3589;SDS011;1809;48.470;9.226;2024-02-15T01:05:30;2.43;;;2.20;;
3589;SDS011;1809;48.470;9.226;2024-02-15T01:07:56;2.80;;;2.33;;
3589;SDS011;1809;48.470;9.226;2024-02-15T01:10:22;3.10;;;2.80;;
3589;SDS011;1809;48.470;9.226;2024-02-15T01:12:49;3.73;;;2.67;;
3589;SDS011;1809;48.470;9.226;2024-02-15T01:15:14;2.50;;;2.40;;
3589;SDS011;1809;48.470;9.226;2024-02-15T01:17:43;6.30;;;2.83;;
3589;SDS011;1809;48.470;9.226;2024-02-15T01:20:09;2.40;;;2.20;;
3589;SDS011;1809;48.470;9.226;2024-02-15T01:22:35;2.83;;;2.53;;
3589;SDS011;1809;48.470;9.226;2024-02-15T01:25:00;3.10;;;2.37;;
3589;SDS011;1809;48.470;9.226;2024-02-15T01:27:26;2.27;;;2.00;;
3589;SDS011;1809;48.470;9.226;2024-02-15T01:29:54;2.43;;;2.33;;
3589;SDS011;1809;48.470;9.226;2024-02-15T01:32:20;2.53;;;2.37;;
3589;SDS011;1809;48.470;9.226;2024-02-15T01:34:46;2.50;;;2.17;;
3589;SDS011;1809;48.470;9.226;2024-02-15T01:37:11;2.23;;;2.10;;
3589;SDS011;1809;48.470;9.226;2024-02-15T01:39:36;2.37;;;2.17;;
3589;SDS011;1809;48.470;9.226;2024-02-15T01:42:02;6.47;;;2.20;;
3589;SDS011;1809;48.470;9.226;2024-02-15T01:44:28;3.27;;;2.10;;
3589;SDS011;1809;48.470;9.226;2024-02-15T01:46:53;3.47;;;2.10;;
3589;SDS011;1809;48.470;9.226;2024-02-15T01:49:20;4.90;;;2.20;;
3589;SDS011;1809;48.470;9.226;2024-02-15T01:51:47;2.83;;;2.50;;
3589;SDS011;1809;48.470;9.226;2024-02-15T01:54:14;4.10;;;1.67;;
3589;SDS011;1809;48.470;9.226;2024-02-15T01:56:43;3.73;;;2.40;;
3589;SDS011;1809;48.470;9.226;2024-02-15T01:59:08;2.30;;;2.13;;
3589;SDS011;1809;48.470;9.226;2024-02-15T02:01:36;2.57;;;2.03;;
3589;SDS011;1809;48.470;9.226;2024-02-15T02:04:01;2.37;;;2.17;;
3589;SDS011;1809;48.470;9.226;2024-02-15T02:06:28;2.10;;;2.00;;
3589;SDS011;1809;48.470;9.226;2024-02-15T02:08:54;2.30;;;2.10;;
3589;SDS011;1809;48.470;9.226;2024-02-15T02:11:21;10.90;;;2.00;;
3589;SDS011;1809;48.470;9.226;2024-02-15T02:13:47;3.40;;;1.90;;
3589;SDS011;1809;48.470;9.226;2024-02-15T02:16:31;4.73;;;1.97;;
3589;SDS011;1809;48.470;9.226;2024-02-15T02:18:57;4.30;;;2.63;;
3589;SDS011;1809;48.470;9.226;2024-02-15T02:21:23;2.47;;;1.90;;
3589;SDS011;1809;48.470;9.226;2024-02-15T02:23:54;3.83;;;1.93;;
3589;SDS011;1809;48.470;9.226;2024-02-15T02:26:21;2.03;;;1.80;;
3589;SDS011;1809;48.470;9.226;2024-02-15T02:28:48;4.30;;;2.10;;
3589;SDS011;1809;48.470;9.226;2024-02-15T02:31:15;2.17;;;1.97;;
3589;SDS011;1809;48.470;9.226;2024-02-15T02:33:46;2.20;;;1.80;;
3589;SDS011;1809;48.470;9.226;2024-02-15T02:36:13;7.67;;;3.10;;
3589;SDS011;1809;48.470;9.226;2024-02-15T02:38:39;2.13;;;1.93;;
3589;SDS011;1809;48.470;9.226;2024-02-15T02:41:05;4.40;;;2.53;;
3589;SDS011;1809;48.470;9.226;2024-02-15T02:43:30;2.07;;;1.93;;
3589;SDS011;1809;48.470;9.226;2024-02-15T02:45:55;2.93;;;1.87;;
3589;SDS011;1809;48.470;9.226;2024-02-15T02:48:21;2.93;;;1.83;;
3589;SDS011;1809;48.470;9.226;2024-02-15T02:50:47;2.07;;;1.87;;
3589;SDS011;1809;48.470;9.226;2024-02-15T02:53:13;3.27;;;1.90;;
3589;SDS011;1809;48.470;9.226;2024-02-15T02:55:40;2.73;;;1.87;;
3589;SDS011;1809;48.470;9.226;2024-02-15T02:58:06;5.03;;;2.60;;
3589;SDS011;1809;48.470;9.226;2024-02-15T03:00:33;2.33;;;1.77;;
3589;SDS011;1809;48.470;9.226;2024-02-15T03:02:58;2.90;;;1.70;;
3589;SDS011;1809;48.470;9.226;2024-02-15T03:05:24;2.40;;;2.20;;
3589;SDS011;1809;48.470;9.226;2024-02-15T03:07:54;4.33;;;1.90;;
3589;SDS011;1809;48.470;9.226;2024-02-15T03:10:19;4.43;;;1.90;;
3589;SDS011;1809;48.470;9.226;2024-02-15T03:12:45;8.07;;;2.97;;
3589;SDS011;1809;48.470;9.226;2024-02-15T03:15:12;2.47;;;1.90;;
3589;SDS011;1809;48.470;9.226;2024-02-15T03:17:39;1.90;;;1.70;;
3589;SDS011;1809;48.470;9.226;2024-02-15T03:20:06;1.93;;;1.80;;
3589;SDS011;1809;48.470;9.226;2024-02-15T03:22:37;3.20;;;2.40;;
3589;SDS011;1809;48.470;9.226;2024-02-15T03:25:06;2.67;;;2.47;;
3589;SDS011;1809;48.470;9.226;2024-02-15T03:27:36;2.67;;;1.80;;
3589;SDS011;1809;48.470;9.226;2024-02-15T03:30:05;1.60;;;1.50;;
3589;SDS011;1809;48.470;9.226;2024-02-15T03:32:31;2.30;;;2.10;;
3589;SDS011;1809;48.470;9.226;2024-02-15T03:34:57;4.53;;;2.03;;
3589;SDS011;1809;48.470;9.226;2024-02-15T03:37:23;2.87;;;2.23;;
3589;SDS011;1809;48.470;9.226;2024-02-15T03:39:49;2.57;;;2.40;;
3589;SDS011;1809;48.470;9.226;2024-02-15T03:42:14;5.70;;;2.10;;
3589;SDS011;1809;48.470;9.226;2024-02-15T03:44:40;3.27;;;2.13;;
3589;SDS011;1809;48.470;9.226;2024-02-15T03:47:06;3.00;;;1.97;;
3589;SDS011;1809;48.470;9.226;2024-02-15T03:49:32;3.77;;;1.97;;
3589;SDS011;1809;48.470;9.226;2024-02-15T03:51:57;3.00;;;2.40;;
3589;SDS011;1809;48.470;9.226;2024-02-15T03:54:24;3.27;;;2.37;;
3589;SDS011;1809;48.470;9.226;2024-02-15T03:56:50;2.27;;;2.17;;
3589;SDS011;1809;48.470;9.226;2024-02-15T03:59:20;2.67;;;2.43;;
3589;SDS011;1809;48.470;9.226;2024-02-15T04:01:51;3.37;;;2.60;;
3589;SDS011;1809;48.470;9.226;2024-02-15T04:04:17;4.70;;;2.67;;
3589;SDS011;1809;48.470;9.226;2024-02-15T04:06:42;2.67;;;2.47;;
3589;SDS011;1809;48.470;9.226;2024-02-15T04:09:08;2.27;;;2.13;;
3589;SDS011;1809;48.470;9.226;2024-02-15T04:11:35;3.07;;;2.30;;
3589;SDS011;1809;48.470;9.226;2024-02-15T04:14:02;1.90;;;1.80;;
3589;SDS011;1809;48.470;9.226;2024-02-15T04:16:28;2.23;;;2.13;;
3589;SDS011;1809;48.470;9.226;2024-02-15T04:18:55;2.17;;;2.03;;
3589;SDS011;1809;48.470;9.226;2024-02-15T04:21:22;2.43;;;2.23;;
3589;SDS011;1809;48.470;9.226;2024-02-15T04:23:48;3.23;;;2.60;;
3589;SDS011;1809;48.470;9.226;2024-02-15T04:26:13;2.17;;;2.07;;
3589;SDS011;1809;48.470;9.226;2024-02-15T04:28:39;2.67;;;2.33;;
3589;SDS011;1809;48.470;9.226;2024-02-15T04:31:06;2.33;;;2.23;;
3589;SDS011;1809;48.470;9.226;2024-02-15T04:33:34;2.13;;;2.00;;
3589;SDS011;1809;48.470;9.226;2024-02-15T04:35:59;2.00;;;1.67;;
3589;SDS011;1809;48.470;9.226;2024-02-15T04:38:27;3.67;;;2.57;;
3589;SDS011;1809;48.470;9.226;2024-02-15T04:40:53;1.97;;;1.87;;
3589;SDS011;1809;48.470;9.226;2024-02-15T04:43:19;3.80;;;2.23;;
3589;SDS011;1809;48.470;9.226;2024-02-15T04:45:44;2.70;;;2.50;;
3589;SDS011;1809;48.470;9.226;2024-02-15T04:48:10;5.00;;;2.17;;
3589;SDS011;1809;48.470;9.226;2024-02-15T04:50:38;2.10;;;2.00;;
3589;SDS011;1809;48.470;9.226;2024-02-15T04:53:08;3.17;;;2.47;;
3589;SDS011;1809;48.470;9.226;2024-02-15T04:55:34;2.60;;;1.90;;
3589;SDS011;1809;48.470;9.226;2024-02-15T04:58:01;2.43;;;2.23;;
3589;SDS011;1809;48.470;9.226;2024-02-15T05:00:26;2.03;;;1.93;;
3589;SDS011;1809;48.470;9.226;2024-02-15T05:02:53;2.70;;;2.20;;
3589;SDS011;1809;48.470;9.226;2024-02-15T05:05:19;4.63;;;3.30;;
3589;SDS011;1809;48.470;9.226;2024-02-15T05:07:45;6.40;;;2.67;;
3589;SDS011;1809;48.470;9.226;2024-02-15T05:10:10;3.17;;;2.27;;
3589;SDS011;1809;48.470;9.226;2024-02-15T05:12:37;3.63;;;2.57;;
3589;SDS011;1809;48.470;9.226;2024-02-15T05:15:05;6.03;;;3.00;;
3589;SDS011;1809;48.470;9.226;2024-02-15T05:17:36;3.40;;;2.50;;
3589;SDS011;1809;48.470;9.226;2024-02-15T05:20:02;3.00;;;2.80;;
3589;SDS011;1809;48.470;9.226;2024-02-15T05:22:35;3.80;;;3.40;;
3589;SDS011;1809;48.470;9.226;2024-02-15T05:25:01;3.50;;;3.20;;
3589;SDS011;1809;48.470;9.226;2024-02-15T05:27:30;2.63;;;2.43;;
3589;SDS011;1809;48.470;9.226;2024-02-15T05:29:56;3.33;;;3.03;;
3589;SDS011;1809;48.470;9.226;2024-02-15T05:32:21;2.60;;;2.33;;
3589;SDS011;1809;48.470;9.226;2024-02-15T05:34:47;6.10;;;3.10;;
3589;SDS011;1809;48.470;9.226;2024-02-15T05:37:13;3.60;;;3.20;;
3589;SDS011;1809;48.470;9.226;2024-02-15T05:39:39;3.20;;;3.00;;
3589;SDS011;1809;48.470;9.226;2024-02-15T05:42:05;5.37;;;4.83;;
3589;SDS011;1809;48.470;9.226;2024-02-15T05:44:30;8.53;;;3.10;;
3589;SDS011;1809;48.470;9.226;2024-02-15T05:46:55;6.10;;;4.23;;
3589;SDS011;1809;48.470;9.226;2024-02-15T05:49:21;4.70;;;4.30;;
3589;SDS011;1809;48.470;9.226;2024-02-15T05:51:48;3.07;;;2.77;;
3589;SDS011;1809;48.470;9.226;2024-02-15T05:54:14;7.43;;;3.10;;
3589;SDS011;1809;48.470;9.226;2024-02-15T05:56:39;4.73;;;3.40;;
3589;SDS011;1809;48.470;9.226;2024-02-15T05:59:07;7.43;;;3.23;;
3589;SDS011;1809;48.470;9.226;2024-02-15T06:01:39;2.63;;;2.40;;
3589;SDS011;1809;48.470;9.226;2024-02-15T06:04:05;5.43;;;3.17;;
3589;SDS011;1809;48.470;9.226;2024-02-15T06:06:34;3.00;;;2.80;;
3589;SDS011;1809;48.470;9.226;2024-02-15T06:08:59;2.67;;;2.47;;
3589;SDS011;1809;48.470;9.226;2024-02-15T06:11:25;5.30;;;2.60;;
3589;SDS011;1809;48.470;9.226;2024-02-15T06:13:51;4.03;;;3.70;;
3589;SDS011;1809;48.470;9.226;2024-02-15T06:16:16;3.87;;;3.17;;
3589;SDS011;1809;48.470;9.226;2024-02-15T06:18:41;3.27;;;2.50;;
3589;SDS011;1809;48.470;9.226;2024-02-15T06:21:07;9.70;;;5.50;;
3589;SDS011;1809;48.470;9.226;2024-02-15T06:23:33;12.10;;;7.87;;
3589;SDS011;1809;48.470;9.226;2024-02-15T06:26:00;6.30;;;5.20;;
3589;SDS011;1809;48.470;9.226;2024-02-15T06:28:27;5.13;;;4.37;;
3589;SDS011;1809;48.470;9.226;2024-02-15T06:31:11;3.67;;;3.30;;
3589;SDS011;1809;48.470;9.226;2024-02-15T06:33:56;3.20;;;2.90;;
3589;SDS011;1809;48.470;9.226;2024-02-15T06:36:40;2.83;;;2.63;;
3589;SDS011;1809;48.470;9.226;2024-02-15T06:39:29;13.57;;;3.50;;
3589;SDS011;1809;48.470;9.226;2024-02-15T06:42:05;3.30;;;3.00;;
3589;SDS011;1809;48.470;9.226;2024-02-15T06:44:32;3.27;;;3.07;;
3589;SDS011;1809;48.470;9.226;2024-02-15T06:46:57;3.47;;;3.10;;
3589;SDS011;1809;48.470;9.226;2024-02-15T06:49:23;3.77;;;2.60;;
3589;SDS011;1809;48.470;9.226;2024-02-15T06:51:50;5.50;;;2.83;;
3589;SDS011;1809;48.470;9.226;2024-02-15T06:54:15;3.30;;;3.00;;
3589;SDS011;1809;48.470;9.226;2024-02-15T06:56:43;5.27;;;3.20;;
3589;SDS011;1809;48.470;9.226;2024-02-15T06:59:10;6.63;;;4.43;;
3589;SDS011;1809;48.470;9.226;2024-02-15T07:01:39;3.00;;;2.73;;
3589;SDS011;1809;48.470;9.226;2024-02-15T07:04:06;6.30;;;3.57;;
3589;SDS011;1809;48.470;9.226;2024-02-15T07:06:33;6.40;;;2.70;;
3589;SDS011;1809;48.470;9.226;2024-02-15T07:09:00;6.57;;;3.43;;
3589;SDS011;1809;48.470;9.226;2024-02-15T07:11:25;4.47;;;2.90;;
3589;SDS011;1809;48.470;9.226;2024-02-15T07:13:50;3.60;;;2.93;;
3589;SDS011;1809;48.470;9.226;2024-02-15T07:16:19;6.13;;;3.37;;
3589;SDS011;1809;48.470;9.226;2024-02-15T07:18:45;3.30;;;2.00;;
3589;SDS011;1809;48.470;9.226;2024-02-15T07:21:11;3.50;;;3.10;;
3589;SDS011;1809;48.470;9.226;2024-02-15T07:23:39;5.93;;;3.40;;
3589;SDS011;1809;48.470;9.226;2024-02-15T07:26:06;3.43;;;2.90;;
3589;SDS011;1809;48.470;9.226;2024-02-15T07:28:31;3.20;;;2.90;;
3589;SDS011;1809;48.470;9.226;2024-02-15T07:30:57;6.73;;;3.90;;
3589;SDS011;1809;48.470;9.226;2024-02-15T07:33:22;6.00;;;3.67;;
3589;SDS011;1809;48.470;9.226;2024-02-15T07:35:48;9.07;;;5.57;;
3589;SDS011;1809;48.470;9.226;2024-02-15T07:38:16;4.43;;;3.47;;
3589;SDS011;1809;48.470;9.226;2024-02-15T07:40:42;6.50;;;4.63;;
3589;SDS011;1809;48.470;9.226;2024-02-15T07:43:07;7.60;;;6.33;;
3589;SDS011;1809;48.470;9.226;2024-02-15T07:45:32;13.40;;;8.13;;
3589;SDS011;1809;48.470;9.226;2024-02-15T07:48:01;15.93;;;9.87;;
3589;SDS011;1809;48.470;9.226;2024-02-15T07:50:29;9.87;;;6.73;;
3589;SDS011;1809;48.470;9.226;2024-02-15T07:52:55;18.70;;;5.80;;
3589;SDS011;1809;48.470;9.226;2024-02-15T07:55:20;6.53;;;5.20;;
3589;SDS011;1809;48.470;9.226;2024-02-15T07:57:46;8.23;;;4.90;;
3589;SDS011;1809;48.470;9.226;2024-02-15T08:00:13;8.00;;;5.90;;
3589;SDS011;1809;48.470;9.226;2024-02-15T08:02:41;16.60;;;5.87;;
3589;SDS011;1809;48.470;9.226;2024-02-15T08:05:07;8.63;;;5.07;;
3589;SDS011;1809;48.470;9.226;2024-02-15T08:07:40;10.70;;;5.07;;
3589;SDS011;1809;48.470;9.226;2024-02-15T08:10:06;6.47;;;5.20;;
3589;SDS011;1809;48.470;9.226;2024-02-15T08:12:37;6.70;;;4.30;;
3589;SDS011;1809;48.470;9.226;2024-02-15T08:15:06;6.10;;;4.70;;
3589;SDS011;1809;48.470;9.226;2024-02-15T08:20:05;6.73;;;4.30;;
3589;SDS011;1809;48.470;9.226;2024-02-15T08:22:38;6.00;;;3.20;;
3589;SDS011;1809;48.470;9.226;2024-02-15T08:25:06;11.87;;;3.40;;
3589;SDS011;1809;48.470;9.226;2024-02-15T08:27:31;9.00;;;3.57;;
3589;SDS011;1809;48.470;9.226;2024-02-15T08:29:58;8.80;;;3.80;;
3589;SDS011;1809;48.470;9.226;2024-02-15T08:32:23;7.53;;;4.63;;
3589;SDS011;1809;48.470;9.226;2024-02-15T08:34:49;7.20;;;3.57;;
3589;SDS011;1809;48.470;9.226;2024-02-15T08:37:15;8.07;;;4.40;;
3589;SDS011;1809;48.470;9.226;2024-02-15T08:39:40;6.57;;;3.60;;
3589;SDS011;1809;48.470;9.226;2024-02-15T08:42:05;3.30;;;3.00;;
3589;SDS011;1809;48.470;9.226;2024-02-15T08:44:31;3.87;;;3.57;;
3589;SDS011;1809;48.470;9.226;2024-02-15T08:46:56;3.53;;;2.73;;
3589;SDS011;1809;48.470;9.226;2024-02-15T08:49:21;6.50;;;2.60;;
3589;SDS011;1809;48.470;9.226;2024-02-15T08:51:47;8.33;;;2.50;;
3589;SDS011;1809;48.470;9.226;2024-02-15T08:54:12;3.00;;;1.50;;
3589;SDS011;1809;48.470;9.226;2024-02-15T08:56:37;1.73;;;1.63;;
3589;SDS011;1809;48.470;9.226;2024-02-15T08:59:03;1.90;;;1.30;;
3589;SDS011;1809;48.470;9.226;2024-02-15T09:01:28;5.50;;;1.63;;
3589;SDS011;1809;48.470;9.226;2024-02-15T09:03:53;1.50;;;1.17;;
3589;SDS011;1809;48.470;9.226;2024-02-15T09:06:19;1.30;;;1.20;;
3589;SDS011;1809;48.470;9.226;2024-02-15T09:08:44;1.47;;;1.37;;
3589;SDS011;1809;48.470;9.226;2024-02-15T09:11:10;4.13;;;1.00;;
3589;SDS011;1809;48.470;9.226;2024-02-15T09:13:37;1.77;;;1.67;;
3589;SDS011;1809;48.470;9.226;2024-02-15T09:16:04;5.77;;;1.50;;
3589;SDS011;1809;48.470;9.226;2024-02-15T09:18:29;3.23;;;1.40;;
3589;SDS011;1809;48.470;9.226;2024-02-15T09:20:54;1.60;;;1.50;;
3589;SDS011;1809;48.470;9.226;2024-02-15T09:23:21;3.00;;;1.37;;
3589;SDS011;1809;48.470;9.226;2024-02-15T09:25:48;3.03;;;1.97;;
3589;SDS011;1809;48.470;9.226;2024-02-15T09:28:15;9.67;;;1.50;;
3589;SDS011;1809;48.470;9.226;2024-02-15T09:30:40;2.60;;;1.77;;
3589;SDS011;1809;48.470;9.226;2024-02-15T09:33:05;1.30;;;1.20;;
3589;SDS011;1809;48.470;9.226;2024-02-15T09:35:31;1.00;;;0.93;;
3589;SDS011;1809;48.470;9.226;2024-02-15T09:37:56;1.33;;;1.23;;
3589;SDS011;1809;48.470;9.226;2024-02-15T09:40:22;1.67;;;1.30;;
3589;SDS011;1809;48.470;9.226;2024-02-15T09:42:54;5.40;;;1.90;;
3589;SDS011;1809;48.470;9.226;2024-02-15T09:45:19;1.10;;;0.90;;
3589;SDS011;1809;48.470;9.226;2024-02-15T09:47:46;2.70;;;1.13;;
3589;SDS011;1809;48.470;9.226;2024-02-15T09:50:15;2.13;;;1.37;;
3589;SDS011;1809;48.470;9.226;2024-02-15T09:52:47;1.93;;;1.20;;
3589;SDS011;1809;48.470;9.226;2024-02-15T09:55:14;2.10;;;0.90;;
3589;SDS011;1809;48.470;9.226;2024-02-15T09:57:42;2.10;;;1.60;;
3589;SDS011;1809;48.470;9.226;2024-02-15T10:00:09;1.17;;;1.17;;
3589;SDS011;1809;48.470;9.226;2024-02-15T10:02:42;3.17;;;0.90;;
3589;SDS011;1809;48.470;9.226;2024-02-15T10:05:11;9.33;;;1.00;;
3589;SDS011;1809;48.470;9.226;2024-02-15T10:07:40;3.20;;;1.30;;
3589;SDS011;1809;48.470;9.226;2024-02-15T10:10:18;1.50;;;0.80;;
3589;SDS011;1809;48.470;9.226;2024-02-15T10:12:46;1.13;;;1.03;;
3589;SDS011;1809;48.470;9.226;2024-02-15T10:18:02;2.20;;;0.90;;
3589;SDS011;1809;48.470;9.226;2024-02-15T10:20:28;3.50;;;1.20;;
3589;SDS011;1809;48.470;9.226;2024-02-15T10:25:28;1.13;;;1.03;;
3589;SDS011;1809;48.470;9.226;2024-02-15T10:28:07;2.07;;;0.90;;
3589;SDS011;1809;48.470;9.226;2024-02-15T10:30:34;3.13;;;1.27;;
3589;SDS011;1809;48.470;9.226;2024-02-15T10:33:01;0.90;;;0.80;;
3589;SDS011;1809;48.470;9.226;2024-02-15T10:35:30;1.50;;;1.10;;
3589;SDS011;1809;48.470;9.226;2024-02-15T10:38:06;1.33;;;0.87;;
3589;SDS011;1809;48.470;9.226;2024-02-15T10:40:32;0.80;;;0.80;;
3589;SDS011;1809;48.470;9.226;2024-02-15T10:42:58;1.80;;;1.00;;
3589;SDS011;1809;48.470;9.226;2024-02-15T10:45:24;1.57;;;0.97;;
3589;SDS011;1809;48.470;9.226;2024-02-15T10:47:50;1.60;;;0.80;;
3589;SDS011;1809;48.470;9.226;2024-02-15T10:50:16;2.20;;;1.40;;
3589;SDS011;1809;48.470;9.226;2024-02-15T10:52:48;1.97;;;1.77;;
3589;SDS011;1809;48.470;9.226;2024-02-15T10:55:22;3.70;;;1.10;;
3589;SDS011;1809;48.470;9.226;2024-02-15T10:58:05;0.70;;;0.70;;
3589;SDS011;1809;48.470;9.226;2024-02-15T11:00:32;1.57;;;1.13;;
3589;SDS011;1809;48.470;9.226;2024-02-15T11:03:02;1.20;;;1.00;;
3589;SDS011;1809;48.470;9.226;2024-02-15T11:05:33;1.63;;;1.53;;
3589;SDS011;1809;48.470;9.226;2024-02-15T11:08:00;1.67;;;1.57;;
3589;SDS011;1809;48.470;9.226;2024-02-15T11:10:28;1.80;;;1.00;;
3589;SDS011;1809;48.470;9.226;2024-02-15T11:12:55;5.10;;;1.20;;
3589;SDS011;1809;48.470;9.226;2024-02-15T11:18:01;1.83;;;1.00;;
3589;SDS011;1809;48.470;9.226;2024-02-15T11:23:01;0.87;;;0.87;;
3589;SDS011;1809;48.470;9.226;2024-02-15T11:25:35;2.50;;;1.27;;
3589;SDS011;1809;48.470;9.226;2024-02-15T11:30:45;1.40;;;1.30;;
3589;SDS011;1809;48.470;9.226;2024-02-15T11:33:24;1.17;;;1.00;;
3589;SDS011;1809;48.470;9.226;2024-02-15T11:36:04;2.50;;;1.20;;
3589;SDS011;1809;48.470;9.226;2024-02-15T11:38:30;1.03;;;1.00;;
3589;SDS011;1809;48.470;9.226;2024-02-15T11:46:15;2.10;;;1.10;;
3589;SDS011;1809;48.470;9.226;2024-02-15T11:48:43;1.97;;;1.87;;
3589;SDS011;1809;48.470;9.226;2024-02-15T11:51:24;1.60;;;1.50;;
3589;SDS011;1809;48.470;9.226;2024-02-15T11:53:59;1.70;;;1.60;;
3589;SDS011;1809;48.470;9.226;2024-02-15T11:56:30;7.27;;;1.60;;
3589;SDS011;1809;48.470;9.226;2024-02-15T11:59:02;2.20;;;2.00;;
3589;SDS011;1809;48.470;9.226;2024-02-15T12:01:31;1.50;;;1.40;;
3589;SDS011;1809;48.470;9.226;2024-02-15T12:04:15;2.83;;;1.47;;
3589;SDS011;1809;48.470;9.226;2024-02-15T12:06:59;2.20;;;2.00;;
3589;SDS011;1809;48.470;9.226;2024-02-15T12:09:43;1.90;;;1.70;;
3589;SDS011;1809;48.470;9.226;2024-02-15T12:12:27;4.00;;;1.60;;
3589;SDS011;1809;48.470;9.226;2024-02-15T12:15:11;1.17;;;1.10;;
3589;SDS011;1809;48.470;9.226;2024-02-15T12:17:55;1.43;;;1.20;;
3589;SDS011;1809;48.470;9.226;2024-02-15T12:20:56;2.10;;;1.83;;
3589;SDS011;1809;48.470;9.226;2024-02-15T12:23:22;1.47;;;1.10;;
3589;SDS011;1809;48.470;9.226;2024-02-15T12:25:51;1.43;;;1.33;;
3589;SDS011;1809;48.470;9.226;2024-02-15T12:28:17;1.30;;;1.20;;
3589;SDS011;1809;48.470;9.226;2024-02-15T12:30:43;2.60;;;1.40;;
3589;SDS011;1809;48.470;9.226;2024-02-15T12:33:09;2.00;;;1.57;;
3589;SDS011;1809;48.470;9.226;2024-02-15T12:35:36;1.73;;;1.43;;
3589;SDS011;1809;48.470;9.226;2024-02-15T12:40:30;1.77;;;1.00;;
3589;SDS011;1809;48.470;9.226;2024-02-15T12:42:56;2.13;;;1.40;;
3589;SDS011;1809;48.470;9.226;2024-02-15T12:45:22;2.73;;;1.10;;
3589;SDS011;1809;48.470;9.226;2024-02-15T12:47:53;1.30;;;1.20;;
3589;SDS011;1809;48.470;9.226;2024-02-15T12:50:29;2.40;;;1.10;;
3589;SDS011;1809;48.470;9.226;2024-02-15T12:52:55;1.37;;;1.27;;
3589;SDS011;1809;48.470;9.226;2024-02-15T12:55:26;5.27;;;1.40;;
3589;SDS011;1809;48.470;9.226;2024-02-15T12:57:54;1.97;;;1.00;;
3589;SDS011;1809;48.470;9.226;2024-02-15T13:00:22;1.77;;;1.23;;
3589;SDS011;1809;48.470;9.226;2024-02-15T13:02:58;3.43;;;1.43;;
3589;SDS011;1809;48.470;9.226;2024-02-15T13:05:25;1.23;;;1.13;;
3589;SDS011;1809;48.470;9.226;2024-02-15T13:07:52;4.50;;;2.27;;
3589;SDS011;1809;48.470;9.226;2024-02-15T13:10:23;1.63;;;1.53;;
3589;SDS011;1809;48.470;9.226;2024-02-15T13:12:48;1.50;;;1.40;;
3589;SDS011;1809;48.470;9.226;2024-02-15T13:15:16;2.30;;;1.20;;
3589;SDS011;1809;48.470;9.226;2024-02-15T13:17:49;1.40;;;1.30;;
3589;SDS011;1809;48.470;9.226;2024-02-15T13:20:19;2.53;;;1.50;;
3589;SDS011;1809;48.470;9.226;2024-02-15T13:22:46;2.07;;;1.20;;
3589;SDS011;1809;48.470;9.226;2024-02-15T13:25:15;1.40;;;1.30;;
3589;SDS011;1809;48.470;9.226;2024-02-15T13:27:46;1.17;;;1.07;;
3589;SDS011;1809;48.470;9.226;2024-02-15T13:30:11;1.60;;;1.50;;
3589;SDS011;1809;48.470;9.226;2024-02-15T13:32:38;1.83;;;1.57;;
3589;SDS011;1809;48.470;9.226;2024-02-15T13:35:06;3.13;;;2.50;;
3589;SDS011;1809;48.470;9.226;2024-02-15T13:37:46;4.20;;;1.80;;
3589;SDS011;1809;48.470;9.226;2024-02-15T13:40:13;4.23;;;2.00;;
3589;SDS011;1809;48.470;9.226;2024-02-15T13:42:42;2.60;;;1.80;;
3589;SDS011;1809;48.470;9.226;2024-02-15T13:45:14;7.17;;;1.67;;
3589;SDS011;1809;48.470;9.226;2024-02-15T13:47:39;2.30;;;1.70;;
3589;SDS011;1809;48.470;9.226;2024-02-15T13:50:04;1.93;;;1.47;;
3589;SDS011;1809;48.470;9.226;2024-02-15T13:52:30;9.13;;;1.80;;
3589;SDS011;1809;48.470;9.226;2024-02-15T13:54:56;1.53;;;1.43;;
3589;SDS011;1809;48.470;9.226;2024-02-15T13:57:21;1.03;;;0.90;;
3589;SDS011;1809;48.470;9.226;2024-02-15T13:59:48;2.83;;;1.30;;
3589;SDS011;1809;48.470;9.226;2024-02-15T14:02:13;2.30;;;1.60;;
3589;SDS011;1809;48.470;9.226;2024-02-15T14:04:39;1.83;;;1.73;;
3589;SDS011;1809;48.470;9.226;2024-02-15T14:07:05;1.70;;;1.60;;
3589;SDS011;1809;48.470;9.226;2024-02-15T14:09:30;2.10;;;1.37;;
3589;SDS011;1809;48.470;9.226;2024-02-15T14:11:55;2.40;;;1.43;;
3589;SDS011;1809;48.470;9.226;2024-02-15T14:14:22;2.00;;;1.50;;
3589;SDS011;1809;48.470;9.226;2024-02-15T14:16:48;1.10;;;1.10;;
3589;SDS011;1809;48.470;9.226;2024-02-15T14:19:13;1.57;;;1.47;;
3589;SDS011;1809;48.470;9.226;2024-02-15T14:21:39;1.50;;;1.40;;
3589;SDS011;1809;48.470;9.226;2024-02-15T14:24:07;2.37;;;1.50;;
3589;SDS011;1809;48.470;9.226;2024-02-15T14:26:33;3.53;;;1.90;;
3589;SDS011;1809;48.470;9.226;2024-02-15T14:28:59;1.20;;;1.10;;
3589;SDS011;1809;48.470;9.226;2024-02-15T14:31:28;6.73;;;1.43;;
3589;SDS011;1809;48.470;9.226;2024-02-15T14:34:12;4.70;;;2.17;;
3589;SDS011;1809;48.470;9.226;2024-02-15T14:36:37;2.90;;;1.30;;
3589;SDS011;1809;48.470;9.226;2024-02-15T14:39:02;1.97;;;1.27;;
3589;SDS011;1809;48.470;9.226;2024-02-15T14:41:29;5.13;;;1.50;;
3589;SDS011;1809;48.470;9.226;2024-02-15T14:43:55;1.40;;;1.30;;
3589;SDS011;1809;48.470;9.226;2024-02-15T14:46:21;1.40;;;1.30;;
3589;SDS011;1809;48.470;9.226;2024-02-15T14:48:47;1.53;;;1.43;;
3589;SDS011;1809;48.470;9.226;2024-02-15T14:51:16;2.03;;;1.93;;
3589;SDS011;1809;48.470;9.226;2024-02-15T14:53:44;3.00;;;1.30;;
3589;SDS011;1809;48.470;9.226;2024-02-15T14:56:09;2.60;;;1.40;;
3589;SDS011;1809;48.470;9.226;2024-02-15T14:58:35;4.37;;;1.20;;
3589;SDS011;1809;48.470;9.226;2024-02-15T15:01:00;15.13;;;1.97;;
3589;SDS011;1809;48.470;9.226;2024-02-15T15:03:25;1.50;;;1.40;;
3589;SDS011;1809;48.470;9.226;2024-02-15T15:05:56;3.40;;;1.83;;
3589;SDS011;1809;48.470;9.226;2024-02-15T15:08:40;2.60;;;1.47;;
3589;SDS011;1809;48.470;9.226;2024-02-15T15:11:24;4.73;;;1.93;;
3589;SDS011;1809;48.470;9.226;2024-02-15T15:14:08;2.03;;;1.83;;
3589;SDS011;1809;48.470;9.226;2024-02-15T15:16:33;2.70;;;1.90;;
3589;SDS011;1809;48.470;9.226;2024-02-15T15:18:59;1.37;;;1.30;;
3589;SDS011;1809;48.470;9.226;2024-02-15T15:21:24;1.70;;;1.60;;
3589;SDS011;1809;48.470;9.226;2024-02-15T15:23:52;3.03;;;1.63;;
3589;SDS011;1809;48.470;9.226;2024-02-15T15:26:18;1.83;;;1.73;;
3589;SDS011;1809;48.470;9.226;2024-02-15T15:28:44;1.67;;;1.57;;
3589;SDS011;1809;48.470;9.226;2024-02-15T15:31:10;1.90;;;1.63;;
3589;SDS011;1809;48.470;9.226;2024-02-15T15:33:35;2.93;;;1.67;;
3589;SDS011;1809;48.470;9.226;2024-02-15T15:36:01;4.70;;;1.80;;
3589;SDS011;1809;48.470;9.226;2024-02-15T15:38:28;5.57;;;1.83;;
3589;SDS011;1809;48.470;9.226;2024-02-15T15:40:54;4.20;;;1.73;;
3589;SDS011;1809;48.470;9.226;2024-02-15T15:43:19;5.57;;;2.17;;